createdAt,value
2023-01-28T00:01:32.926Z,102558.00
2023-01-28T00:04:35.548Z,102556.28
2023-01-28T00:07:38.136Z,102565.84
2023-01-28T00:10:40.702Z,102561.81
2023-01-28T00:13:44.685Z,102563.81
2023-01-28T00:16:47.429Z,102568.38
2023-01-28T00:19:50.014Z,102566.78
2023-01-28T00:22:52.597Z,102568.66
2023-01-28T00:25:55.619Z,102572.03
2023-01-28T00:28:59.555Z,102571.53
2023-01-28T00:32:02.189Z,102574.97
2023-01-28T00:35:05.037Z,102580.00
2023-01-28T00:38:08.903Z,102569.66
2023-01-28T00:41:13.671Z,102572.28
2023-01-28T00:44:17.668Z,102574.84
2023-01-28T00:47:21.432Z,102573.03
2023-01-28T00:50:24.060Z,102572.16
2023-01-28T00:53:26.954Z,102561.56
2023-01-28T00:56:29.672Z,102568.56
2023-01-28T00:59:33.588Z,102563.38
2023-01-28T01:02:36.213Z,102564.41
2023-01-28T01:05:38.810Z,102573.19
2023-01-28T01:08:43.086Z,102570.56
2023-01-28T01:11:45.801Z,102567.94
2023-01-28T01:14:49.751Z,102568.75
2023-01-28T01:17:53.104Z,102566.03
2023-01-28T01:20:58.793Z,102556.50
2023-01-28T01:24:01.517Z,102553.88
2023-01-28T01:27:05.867Z,102564.41
2023-01-28T01:30:11.559Z,102557.34
2023-01-28T01:33:14.328Z,102557.38
2023-01-28T01:36:19.515Z,102560.94
2023-01-28T01:39:22.124Z,102560.94
2023-01-28T01:42:26.486Z,102568.03
2023-01-28T01:45:33.818Z,102568.06
2023-01-28T01:48:37.390Z,102559.28
2023-01-28T01:51:40.984Z,102563.59
2023-01-28T01:54:47.904Z,102559.22
2023-01-28T01:57:55.835Z,102558.41
2023-01-28T02:01:00.074Z,102562.72
2023-01-28T02:04:07.073Z,102560.94
2023-01-28T02:07:12.402Z,102558.31
2023-01-28T02:10:16.115Z,102556.56
2023-01-28T02:13:20.414Z,102550.38
2023-01-28T02:16:25.732Z,102557.34
2023-01-28T02:19:33.390Z,102557.44
2023-01-28T02:22:55.591Z,102555.59
2023-01-28T02:26:36.695Z,102553.88
2023-01-28T02:29:48.878Z,102548.50
2023-01-28T02:32:56.870Z,102552.81
2023-01-28T02:36:06.840Z,102535.22
2023-01-28T02:39:14.870Z,102545.78
2023-01-28T02:42:20.711Z,102548.41
2023-01-28T02:45:48.377Z,102538.81
2023-01-28T02:48:49.986Z,102550.09
2023-01-28T02:52:09.748Z,102544.84
2023-01-28T02:55:22.665Z,102553.50
2023-01-28T02:58:36.660Z,102542.09
2023-01-28T03:01:48.876Z,102547.41
2023-01-28T03:04:59.655Z,102551.91
2023-01-28T03:08:24.614Z,102550.03
2023-01-28T03:11:47.481Z,102546.47
2023-01-28T03:15:11.025Z,102542.88
2023-01-28T03:18:36.929Z,102542.91
2023-01-28T03:22:01.193Z,102544.75
2023-01-28T03:25:21.396Z,102548.16
2023-01-28T03:28:42.766Z,102541.13
2023-01-28T03:32:03.141Z,102535.88
2023-01-28T03:35:27.316Z,102534.91
2023-01-28T03:38:33.961Z,102536.81
2023-01-28T03:41:36.573Z,102540.47
2023-01-28T03:44:52.057Z,102537.75
2023-01-28T03:47:54.663Z,102528.91
2023-01-28T03:51:00.308Z,102536.66
2023-01-28T03:54:02.999Z,102541.91
2023-01-28T03:57:05.971Z,102539.97
2023-01-28T04:00:11.476Z,102551.47
2023-01-28T04:03:17.539Z,102552.34
2023-01-28T04:06:21.471Z,102558.56
2023-01-28T04:09:24.637Z,102554.97
2023-01-28T04:12:27.260Z,102553.38
2023-01-28T04:15:30.923Z,102552.31
2023-01-28T04:18:33.521Z,102557.56
2023-01-28T04:21:37.507Z,102554.94
2023-01-28T04:24:40.099Z,102547.81
2023-01-28T04:27:42.674Z,102546.91
2023-01-28T04:30:45.323Z,102547.97
2023-01-28T04:33:47.928Z,102549.72
2023-01-28T04:36:51.909Z,102539.94
2023-01-28T04:39:54.485Z,102538.13
2023-01-28T04:42:57.854Z,102534.72
2023-01-28T04:46:00.457Z,102539.09
2023-01-28T04:49:03.505Z,102529.16
2023-01-28T04:52:07.647Z,102539.66
2023-01-28T04:55:11.576Z,102540.41
2023-01-28T04:58:14.221Z,102539.56
2023-01-28T05:01:16.839Z,102539.63
2023-01-28T05:04:19.813Z,102552.81
2023-01-28T05:07:23.795Z,102547.44
2023-01-28T05:10:27.912Z,102546.41
2023-01-28T05:13:30.503Z,102542.97
2023-01-28T05:16:34.858Z,102550.03
2023-01-28T05:19:37.428Z,102538.59
2023-01-28T05:22:41.992Z,102537.03
2023-01-28T05:25:45.790Z,102540.53
2023-01-28T05:28:48.434Z,102526.53
2023-01-28T05:31:51.023Z,102533.34
2023-01-28T05:34:53.607Z,102522.56
2023-01-28T05:37:57.542Z,102517.41
2023-01-28T05:41:00.142Z,102511.38
2023-01-28T05:44:02.985Z,102506.78
2023-01-28T05:47:05.675Z,102506.53
2023-01-28T05:50:09.658Z,102506.44
2023-01-28T05:53:13.629Z,102504.75
2023-01-28T05:56:16.283Z,102513.31
2023-01-28T05:59:18.854Z,102503.53
2023-01-28T06:02:21.744Z,102514.00
2023-01-28T06:05:24.474Z,102526.41
2023-01-28T06:08:28.466Z,102531.53
2023-01-28T06:11:31.037Z,102536.16
2023-01-28T06:14:33.610Z,102514.22
2023-01-28T06:17:36.228Z,102509.75
2023-01-28T06:20:38.836Z,102510.50
2023-01-28T06:23:42.792Z,102515.94
2023-01-28T06:26:45.365Z,102519.13
2023-01-28T06:29:47.951Z,102520.00
2023-01-28T06:32:55.229Z,102511.44
2023-01-28T06:35:57.870Z,102509.47
2023-01-28T06:39:01.809Z,102512.22
2023-01-28T06:42:04.636Z,102520.16
2023-01-28T06:45:08.115Z,102518.34
2023-01-28T06:48:10.710Z,102509.34
2023-01-28T06:51:13.311Z,102517.25
2023-01-28T06:54:17.755Z,102510.38
2023-01-28T06:57:20.372Z,102516.59
2023-01-28T07:00:23.112Z,102503.25
2023-01-28T07:03:25.809Z,102507.63
2023-01-28T07:06:28.387Z,102521.72
2023-01-28T07:09:32.310Z,102531.56
2023-01-28T07:12:34.891Z,102542.19
2023-01-28T07:15:37.983Z,102549.66
2023-01-28T07:18:40.569Z,102553.91
2023-01-28T07:21:43.137Z,102560.59
2023-01-28T07:24:47.176Z,102570.22
2023-01-28T07:27:51.509Z,102571.19
2023-01-28T07:30:54.405Z,102585.16
2023-01-28T07:33:57.015Z,102581.59
2023-01-28T07:36:59.657Z,102580.78
2023-01-28T07:40:03.888Z,102591.53
2023-01-28T07:43:07.096Z,102588.78
2023-01-28T07:46:09.724Z,102578.09
2023-01-28T07:49:12.309Z,102578.47
2023-01-28T07:52:15.291Z,102585.53
2023-01-28T07:55:19.604Z,102586.47
2023-01-28T07:58:22.188Z,102585.56
2023-01-28T08:01:24.912Z,102582.81
2023-01-28T08:04:27.596Z,102595.25
2023-01-28T08:07:30.283Z,102608.38
2023-01-28T08:10:34.237Z,102598.91
2023-01-28T08:13:36.847Z,102617.25
2023-01-28T08:16:39.426Z,102607.03
2023-01-28T08:19:42.020Z,102607.69
2023-01-28T08:22:44.589Z,102608.63
2023-01-28T08:25:49.243Z,102614.59
2023-01-28T08:28:51.839Z,102612.94
2023-01-28T08:31:54.422Z,102614.38
2023-01-28T08:34:57.123Z,102610.16
2023-01-28T08:38:01.054Z,102612.88
2023-01-28T08:41:05.243Z,102609.53
2023-01-28T08:44:07.887Z,102615.63
2023-01-28T08:47:10.474Z,102624.47
2023-01-28T08:50:13.290Z,102639.22
2023-01-28T08:53:18.339Z,102627.50
2023-01-28T08:56:22.252Z,102609.16
2023-01-28T08:59:24.877Z,102618.13
2023-01-28T09:02:31.807Z,102620.19
2023-01-28T09:05:35.635Z,102622.69
2023-01-28T09:08:38.341Z,102638.78
2023-01-28T09:11:42.305Z,102649.41
2023-01-28T09:14:44.890Z,102659.09
2023-01-28T09:17:47.487Z,102665.47
2023-01-28T09:20:50.087Z,102654.94
2023-01-28T09:23:55.640Z,102662.03
2023-01-28T09:26:59.623Z,102667.09
2023-01-28T09:30:02.212Z,102673.84
2023-01-28T09:33:04.802Z,102665.13
2023-01-28T09:36:09.638Z,102671.28
2023-01-28T09:39:12.237Z,102676.28
2023-01-28T09:42:33.684Z,102689.81
2023-01-28T09:45:41.628Z,102697.50
2023-01-28T09:48:48.273Z,102698.66
2023-01-28T09:51:54.890Z,102700.47
2023-01-28T09:55:03.444Z,102697.38
2023-01-28T09:58:13.447Z,102695.53
2023-01-28T10:01:39.687Z,102670.44
2023-01-28T10:04:52.414Z,102667.38
2023-01-28T10:08:06.827Z,102653.34
2023-01-28T10:11:19.693Z,102652.22
2023-01-28T10:14:35.425Z,102648.97
2023-01-28T10:17:42.514Z,102652.72
2023-01-28T10:20:49.337Z,102643.25
2023-01-28T10:23:58.846Z,102629.88
2023-01-28T10:27:01.800Z,102639.13
2023-01-28T10:30:19.312Z,102636.97
2023-01-28T10:33:30.639Z,102638.44
2023-01-28T10:36:33.682Z,102630.34
2023-01-28T10:39:36.322Z,102621.19
2023-01-28T10:42:39.797Z,102626.63
2023-01-28T10:45:54.619Z,102612.53
2023-01-28T10:49:03.604Z,102618.88
2023-01-28T10:52:13.256Z,102604.88
2023-01-28T10:55:15.970Z,102602.34
2023-01-28T10:58:21.666Z,102600.69
2023-01-28T11:01:25.728Z,102586.50
2023-01-28T11:04:30.807Z,102572.88
2023-01-28T11:07:33.747Z,102550.16
2023-01-28T11:10:38.258Z,102546.28
2023-01-28T11:13:50.832Z,102560.28
2023-01-28T11:16:57.595Z,102549.78
2023-01-28T11:20:09.754Z,102550.59
2023-01-28T11:23:22.179Z,102550.47
2023-01-28T11:26:28.411Z,102549.59
2023-01-28T11:29:32.890Z,102546.31
2023-01-28T11:32:36.904Z,102541.06
2023-01-28T11:35:39.887Z,102527.88
2023-01-28T11:38:50.430Z,102532.06
2023-01-28T11:41:54.255Z,102494.56
2023-01-28T11:44:56.863Z,102478.16
2023-01-28T11:48:19.875Z,102505.38
2023-01-28T11:51:34.729Z,102507.59
2023-01-28T11:54:47.037Z,102501.44
2023-01-28T11:57:59.407Z,102522.44
2023-01-28T12:01:08.617Z,102519.69
2023-01-28T12:04:44.490Z,102507.00
2023-01-28T12:07:58.906Z,102500.31
2023-01-28T12:11:19.662Z,102500.13
2023-01-28T12:14:28.949Z,102489.09
2023-01-28T12:17:42.816Z,102497.25
2023-01-28T12:20:56.806Z,102500.72
2023-01-28T12:24:15.343Z,102499.00
2023-01-28T12:27:33.973Z,102486.59
2023-01-28T12:30:50.810Z,102483.50
2023-01-28T12:34:08.662Z,102481.72
2023-01-28T12:37:20.511Z,102476.97
2023-01-28T12:40:43.718Z,102477.72
2023-01-28T12:43:59.721Z,102466.13
2023-01-28T12:47:08.338Z,102473.25
2023-01-28T12:50:19.108Z,102458.69
2023-01-28T12:53:30.077Z,102462.66
2023-01-28T12:56:35.465Z,102458.13
2023-01-28T12:59:43.385Z,102449.94
2023-01-28T13:02:51.820Z,102442.09
2023-01-28T13:05:58.793Z,102433.59
2023-01-28T13:09:17.570Z,102426.19
2023-01-28T13:12:22.229Z,102437.13
2023-01-28T13:15:25.811Z,102424.78
2023-01-28T13:18:44.149Z,102413.34
2023-01-28T13:21:49.931Z,102415.91
2023-01-28T13:24:53.891Z,102417.81
2023-01-28T13:27:58.981Z,102406.44
2023-01-28T13:31:03.995Z,102407.03
2023-01-28T13:34:08.416Z,102403.97
2023-01-28T13:37:25.831Z,102404.84
2023-01-28T13:40:30.663Z,102433.19
2023-01-28T13:43:39.053Z,102426.78
2023-01-28T13:46:41.710Z,102427.97
2023-01-28T13:49:46.758Z,102433.94
2023-01-28T13:52:56.202Z,102438.38
2023-01-28T13:56:00.257Z,102442.38
2023-01-28T13:59:48.443Z,102449.16
2023-01-28T14:03:30.826Z,102457.78
2023-01-28T14:07:16.267Z,102474.06
2023-01-28T14:10:35.917Z,102459.22
2023-01-28T14:14:01.752Z,102461.84
2023-01-28T14:17:14.140Z,102459.13
2023-01-28T14:20:22.044Z,102464.38
2023-01-28T14:23:26.773Z,102447.63
2023-01-28T14:26:43.466Z,102451.97
2023-01-28T14:29:59.723Z,102445.69
2023-01-28T14:33:03.056Z,102443.75
2023-01-28T14:36:06.491Z,102442.75
2023-01-28T14:39:18.017Z,102435.81
2023-01-28T14:42:24.374Z,102433.81
2023-01-28T14:45:46.082Z,102434.28
2023-01-28T14:48:55.813Z,102437.41
2023-01-28T14:52:13.454Z,102451.41
2023-01-28T14:55:31.058Z,102456.47
2023-01-28T14:58:38.743Z,102454.81
2023-01-28T15:01:47.596Z,102455.53
2023-01-28T15:04:50.746Z,102469.63
2023-01-28T15:07:53.492Z,102477.41
2023-01-28T15:10:56.133Z,102476.41
2023-01-28T15:14:00.608Z,102487.06
2023-01-28T15:17:04.736Z,102493.69
2023-01-28T15:20:09.444Z,102489.28
2023-01-28T15:26:26.591Z,102473.84
2023-01-28T15:29:33.720Z,102471.09
2023-01-28T15:32:37.664Z,102460.81
2023-01-28T15:35:48.099Z,102460.75
2023-01-28T15:38:50.704Z,102437.81
2023-01-28T15:41:56.771Z,102435.28
2023-01-28T15:44:59.986Z,102436.19
2023-01-28T15:48:08.875Z,102448.94
2023-01-28T15:51:21.665Z,102463.22
2023-01-28T15:54:25.076Z,102456.91
2023-01-28T15:57:31.581Z,102458.94
2023-01-28T16:00:34.217Z,102446.63
2023-01-28T16:03:39.871Z,102426.41
2023-01-28T16:06:42.703Z,102421.78
2023-01-28T16:09:45.323Z,102420.25
2023-01-28T16:12:52.904Z,102421.84
2023-01-28T16:15:57.561Z,102446.22
2023-01-28T16:19:03.864Z,102449.84
2023-01-28T16:22:08.244Z,102449.06
2023-01-28T16:25:29.424Z,102436.78
2023-01-28T16:28:32.775Z,102451.44
2023-01-28T16:31:35.858Z,102451.75
2023-01-28T16:34:42.150Z,102452.75
2023-01-28T16:37:44.762Z,102451.69
2023-01-28T16:40:48.371Z,102450.63
2023-01-28T16:43:50.970Z,102434.72
2023-01-28T16:46:53.575Z,102445.63
2023-01-28T16:49:57.616Z,102461.44
2023-01-28T16:53:01.188Z,102445.84
2023-01-28T16:56:03.769Z,102432.63
2023-01-28T16:59:06.338Z,102423.31
2023-01-28T17:02:12.078Z,102433.19
2023-01-28T17:05:16.651Z,102450.94
2023-01-28T17:08:19.441Z,102450.69
2023-01-28T17:11:22.353Z,102452.34
2023-01-28T17:14:25.180Z,102447.34
2023-01-28T17:17:27.829Z,102451.25
2023-01-28T17:20:32.129Z,102453.09
2023-01-28T17:23:35.357Z,102460.31
2023-01-28T17:26:38.145Z,102468.44
2023-01-28T17:29:40.827Z,102467.66
2023-01-28T17:32:43.402Z,102445.19
2023-01-28T17:35:49.127Z,102451.56
2023-01-28T17:38:51.809Z,102454.91
2023-01-28T17:41:55.014Z,102442.81
2023-01-28T17:45:02.861Z,102452.13
2023-01-28T17:48:05.998Z,102462.59
2023-01-28T17:51:09.935Z,102461.00
2023-01-28T17:54:12.709Z,102452.13
2023-01-28T17:57:15.338Z,102455.75
2023-01-28T18:00:19.250Z,102455.88
2023-01-28T18:03:21.895Z,102456.09
2023-01-28T18:06:26.018Z,102453.59
2023-01-28T18:09:29.309Z,102448.56
2023-01-28T18:12:31.920Z,102445.97
2023-01-28T18:15:34.494Z,102455.38
2023-01-28T18:18:37.135Z,102465.47
2023-01-28T18:21:52.693Z,102466.72
2023-01-28T18:24:55.856Z,102473.63
2023-01-28T18:27:58.493Z,102482.00
2023-01-28T18:31:06.186Z,102468.03
2023-01-28T18:34:08.777Z,102470.81
2023-01-28T18:37:12.810Z,102469.81
2023-01-28T18:40:15.427Z,102477.22
2023-01-28T18:43:18.016Z,102485.28
2023-01-28T18:46:20.603Z,102467.75
2023-01-28T18:49:23.480Z,102461.03
2023-01-28T18:52:27.487Z,102449.41
2023-01-28T18:55:30.107Z,102448.34
2023-01-28T18:58:33.159Z,102454.47
2023-01-28T19:01:35.948Z,102444.84
2023-01-28T19:04:38.647Z,102438.28
2023-01-28T19:07:42.575Z,102437.31
2023-01-28T19:10:45.286Z,102430.44
2023-01-28T19:13:47.885Z,102424.69
2023-01-28T19:16:50.525Z,102422.38
2023-01-28T19:19:53.263Z,102425.53
2023-01-28T19:22:57.202Z,102426.75
2023-01-28T19:26:03.507Z,102430.22
2023-01-28T19:29:09.145Z,102428.50
2023-01-28T19:32:11.853Z,102430.78
2023-01-28T19:35:14.939Z,102419.31
2023-01-28T19:38:19.211Z,102416.78
2023-01-28T19:41:21.873Z,102417.47
2023-01-28T19:44:24.559Z,102412.91
2023-01-28T19:47:28.042Z,102422.03
2023-01-28T19:50:31.032Z,102420.53
2023-01-28T19:53:35.367Z,102416.66
2023-01-28T19:56:38.641Z,102421.59
2023-01-28T19:59:41.340Z,102415.53
2023-01-28T20:02:44.107Z,102424.16
2023-01-28T20:05:46.752Z,102421.16
2023-01-28T20:08:54.878Z,102427.44
2023-01-28T20:11:57.480Z,102428.88
2023-01-28T20:15:00.845Z,102423.84
2023-01-28T20:18:04.959Z,102422.03
2023-01-28T20:21:07.901Z,102406.88
2023-01-28T20:24:13.739Z,102412.91
2023-01-28T20:27:16.388Z,102404.72
2023-01-28T20:30:19.227Z,102397.53
2023-01-28T20:33:22.426Z,102398.75
2023-01-28T20:36:25.042Z,102390.72
2023-01-28T20:39:28.965Z,102402.19
2023-01-28T20:42:31.545Z,102402.34
2023-01-28T20:45:34.156Z,102395.78
2023-01-28T20:48:37.140Z,102391.06
2023-01-28T20:51:39.882Z,102389.69
2023-01-28T20:54:43.952Z,102388.34
2023-01-28T20:57:46.632Z,102391.97
2023-01-28T21:00:49.216Z,102387.94
2023-01-28T21:03:52.187Z,102382.28
2023-01-28T21:06:54.782Z,102383.59
2023-01-28T21:10:02.103Z,102386.50
2023-01-28T21:13:05.005Z,102384.19
2023-01-28T21:16:08.300Z,102374.88
2023-01-28T21:19:10.935Z,102380.69
2023-01-28T21:22:13.519Z,102383.13
2023-01-28T21:25:17.677Z,102385.84
2023-01-28T21:28:21.258Z,102379.53
2023-01-28T21:31:26.075Z,102372.44
2023-01-28T21:34:28.737Z,102368.63
2023-01-28T21:37:32.500Z,102370.28
2023-01-28T21:40:37.206Z,102370.50
2023-01-28T21:43:40.123Z,102379.59
2023-01-28T21:46:42.780Z,102382.41
2023-01-28T21:49:45.376Z,102385.47
2023-01-28T21:52:49.146Z,102375.53
2023-01-28T21:55:53.080Z,102375.25
2023-01-28T21:59:13.387Z,102369.16
2023-01-28T22:02:16.205Z,102369.06
2023-01-28T22:05:18.818Z,102365.84
2023-01-28T22:08:21.425Z,102368.50
2023-01-28T22:11:25.419Z,102360.47
2023-01-28T22:14:28.015Z,102359.84
2023-01-28T22:17:30.607Z,102355.38
2023-01-28T22:20:33.265Z,102365.53
2023-01-28T22:23:36.126Z,102357.50
2023-01-28T22:26:40.390Z,102362.41
2023-01-28T22:29:42.978Z,102373.22
2023-01-28T22:32:45.559Z,102362.97
2023-01-28T22:35:48.533Z,102353.97
2023-01-28T22:38:51.209Z,102343.56
2023-01-28T22:41:55.158Z,102343.47
2023-01-28T22:44:57.746Z,102331.34
2023-01-28T22:48:00.323Z,102327.13
2023-01-28T22:51:04.350Z,102326.13
2023-01-28T22:54:07.185Z,102320.75
2023-01-28T22:57:11.125Z,102323.25
2023-01-28T23:00:17.122Z,102312.88
2023-01-28T23:03:20.052Z,102310.25
2023-01-28T23:06:23.844Z,102298.81
2023-01-28T23:09:26.584Z,102292.19
2023-01-28T23:12:30.569Z,102299.97
2023-01-28T23:15:51.049Z,102304.88
2023-01-28T23:19:11.370Z,102305.28
2023-01-28T23:22:34.248Z,102297.63
2023-01-28T23:25:36.961Z,102301.44
2023-01-28T23:28:40.894Z,102303.63
2023-01-28T23:31:46.484Z,102302.47
2023-01-28T23:34:49.169Z,102298.81
2023-01-28T23:37:51.752Z,102296.34
2023-01-28T23:40:54.838Z,102292.47
2023-01-28T23:43:59.271Z,102292.94
2023-01-28T23:47:01.944Z,102300.81
2023-01-28T23:50:05.398Z,102305.75
2023-01-28T23:53:13.060Z,102296.63
2023-01-28T23:56:15.857Z,102298.56
2023-01-28T23:59:19.947Z,102294.19
